aviador You're here:

LFBC Decoded Metar

CAZAUX in FRANCE
Report Time2017-11-20 00:00:00
UTC Time2017-11-20 00:09:52
Flight Rules mvfr MVFR
WindVRB at 01 kt
Visibility7000 m
Phenomena:N/A
Clouds:N/A
Expected CloudBase > 400 ft AGL from Temp-Dew spread
CeilingNone
Temp02°C (ISA -13)
Dew Point01°C (93% RH)
AAT-0.2°C
QNH1026 hPa
Density Alt-1,801 ft
Elevation108 ft
Report Wrong Elevation
Raw Report
METAR LFBC 200000Z AUTO VRB01KT 7000 NSC 02/01 Q1026=

Extra information for LFBC:More info

Metar Taf Metar & Taf Last 4 Metars F.Rules Stats Wind Profile Meteogram Temp Stats Airport Information Weather charts Add Link Nearby VenuesMetar ALERT Operation Metar Decoded Social comments